Skip Navigation Links Skip Navigation LinksHome page > Weather > Archival weather report

Archival weather report

Heathrow, London

For information only: do not use for flight planning or navigation.
Latest weather
Observation time Thursday, January 18, 2018 2:20 PM GMT
Local time Wednesday, August 12, 2020 7:52 PM BST
Flight conditions Visual Meteorological Conditions
Winds
Wind direction West (270°)
Wind speed 14 mph
Visibility 6.2 mi.
Sky condition
Ceiling unlimited
Cloud layer few clouds 3,700 ft.
Cloud layer scattered clouds 4,600 ft.
Temperature 48°F
Dewpoint 36°F
Altimeter 29.59 in.Hg
Derived measurements
Relative humidity 62%
Wind chill 43°F
Density altitude -229 ft.
Remarks
Fully automated report.
No significant changes expected in the next two hours.
METAR EGLL 181420Z AUTO 27012KT 9999 FEW037/// SCT046/// //////CB 09/02 Q1002 NOSIG

Find weather

Site navigation


Skip Navigation Links

Place info

Page info

PayPal - The safer, easier way to pay online!

Return home.

Copyright ©2020 Inner Drive Technology. Purveyors of fine, hand-crafted computer software. Page printed 2020-08-12T18:52:18 UTC.